createdAt,value
2018-06-23T00:00:40.201Z,64.84
2018-06-23T00:03:10.153Z,65.77
2018-06-23T00:05:38.815Z,65.32
2018-06-23T00:08:08.042Z,66.22
2018-06-23T00:10:37.201Z,65.75
2018-06-23T00:13:06.106Z,65.55
2018-06-23T00:15:34.866Z,66.65
2018-06-23T00:34:35.454Z,67.04
2018-06-23T00:43:41.137Z,66.00
2018-06-23T00:48:25.805Z,65.74
2018-06-23T00:50:54.571Z,67.39
2018-06-23T00:53:22.883Z,67.56
2018-06-23T00:55:51.721Z,66.30
2018-06-23T00:58:20.366Z,65.95
2018-06-23T01:00:48.873Z,67.11
2018-06-23T01:03:17.551Z,67.27
2018-06-23T01:05:45.888Z,65.90
2018-06-23T01:08:14.419Z,66.08
2018-06-23T01:10:43.198Z,65.98
2018-06-23T01:13:11.557Z,67.30
2018-06-23T01:15:39.927Z,66.58
2018-06-23T01:18:09.340Z,66.54
2018-06-23T01:20:37.755Z,66.16
2018-06-23T01:23:06.186Z,66.59
2018-06-23T01:25:34.843Z,66.55
2018-06-23T01:28:03.403Z,66.43
2018-06-23T01:30:32.002Z,66.54
2018-06-23T01:33:00.410Z,67.76
2018-06-23T01:35:28.824Z,66.79
2018-06-23T01:37:57.432Z,67.00
2018-06-23T01:40:25.927Z,67.44
2018-06-23T01:42:54.568Z,67.94
2018-06-23T01:45:23.005Z,68.29
2018-06-23T01:47:51.645Z,68.24
2018-06-23T01:50:20.340Z,67.85
2018-06-23T01:52:48.939Z,68.67
2018-06-23T01:55:17.581Z,68.27
2018-06-23T01:57:46.477Z,68.45
2018-06-23T02:00:15.186Z,68.31
2018-06-23T02:02:43.575Z,69.28
2018-06-23T02:05:12.400Z,69.71
2018-06-23T02:07:40.709Z,69.69
2018-06-23T02:10:09.328Z,69.04
2018-06-23T02:12:37.709Z,68.39
2018-06-23T02:15:09.103Z,69.03
2018-06-23T02:17:44.159Z,68.77
2018-06-23T02:20:18.596Z,69.23
2018-06-23T02:22:52.525Z,68.17
2018-06-23T02:26:30.529Z,68.93
2018-06-23T02:29:04.569Z,69.14
2018-06-23T02:31:38.675Z,68.53
2018-06-23T02:35:13.478Z,68.08
2018-06-23T02:37:42.177Z,68.11
2018-06-23T02:40:10.656Z,68.45
2018-06-23T02:42:39.144Z,68.14
2018-06-23T02:45:07.882Z,68.51
2018-06-23T02:47:36.528Z,68.32
2018-06-23T02:50:05.418Z,68.57
2018-06-23T02:52:34.164Z,67.94
2018-06-23T02:55:02.595Z,68.54
2018-06-23T02:57:31.479Z,68.17
2018-06-23T02:59:59.936Z,68.70
2018-06-23T03:02:28.536Z,68.59
2018-06-23T03:04:57.315Z,69.13
2018-06-23T03:07:26.039Z,68.23
2018-06-23T03:09:54.229Z,68.66
2018-06-23T03:12:22.716Z,69.05
2018-06-23T03:14:51.148Z,68.58
2018-06-23T03:17:19.750Z,68.54
2018-06-23T03:19:49.538Z,67.55
2018-06-23T03:22:18.300Z,67.82
2018-06-23T03:24:46.944Z,68.75
2018-06-23T03:27:15.289Z,69.14
2018-06-23T03:29:44.019Z,69.54
2018-06-23T03:32:12.556Z,68.62
2018-06-23T03:34:41.163Z,67.92
2018-06-23T03:37:09.761Z,68.66
2018-06-23T03:39:38.281Z,68.43
2018-06-23T03:42:07.199Z,68.24
2018-06-23T03:44:35.813Z,69.94
2018-06-23T03:47:04.693Z,68.54
2018-06-23T03:49:33.196Z,69.35
2018-06-23T03:52:01.586Z,68.68
2018-06-23T03:54:30.022Z,68.87
2018-06-23T03:56:58.739Z,68.93
2018-06-23T03:59:27.172Z,69.04
2018-06-23T04:01:55.668Z,69.30
2018-06-23T04:04:23.969Z,69.49
2018-06-23T04:06:52.548Z,68.15
2018-06-23T04:09:20.899Z,68.99
2018-06-23T04:11:49.342Z,68.54
2018-06-23T04:14:17.988Z,68.04
2018-06-23T04:16:46.596Z,68.26
2018-06-23T04:19:15.229Z,67.59
2018-06-23T04:21:43.738Z,67.17
2018-06-23T04:24:12.198Z,68.17
2018-06-23T04:26:40.799Z,67.43
2018-06-23T04:29:09.347Z,67.90
2018-06-23T04:31:37.774Z,67.81
2018-06-23T04:34:06.235Z,66.58
2018-06-23T04:36:35.016Z,67.12
2018-06-23T04:39:05.278Z,67.13
2018-06-23T04:41:34.212Z,67.77
2018-06-23T04:44:02.853Z,66.61
2018-06-23T04:46:31.397Z,66.71
2018-06-23T04:48:59.842Z,66.43
2018-06-23T04:51:28.516Z,65.48
2018-06-23T04:53:57.146Z,65.18
2018-06-23T04:56:25.786Z,65.35
2018-06-23T04:58:54.100Z,65.56
2018-06-23T05:01:22.705Z,65.93
2018-06-23T05:03:51.310Z,65.21
2018-06-23T05:06:19.649Z,65.21
2018-06-23T05:08:47.987Z,65.33
2018-06-23T05:11:16.618Z,66.45
2018-06-23T05:13:45.037Z,66.37
2018-06-23T05:16:13.449Z,66.31
2018-06-23T05:18:41.902Z,65.92
2018-06-23T05:21:10.241Z,66.37
2018-06-23T05:23:38.709Z,66.29
2018-06-23T05:26:07.428Z,66.12
2018-06-23T05:28:36.063Z,66.85
2018-06-23T05:31:04.599Z,65.97
2018-06-23T05:33:33.046Z,66.18
2018-06-23T05:36:01.605Z,66.98
2018-06-23T05:38:30.274Z,66.96
2018-06-23T05:40:58.794Z,66.10
2018-06-23T05:43:27.306Z,66.07
2018-06-23T05:45:56.001Z,66.37
2018-06-23T05:48:24.430Z,66.41
2018-06-23T05:50:53.028Z,66.40
2018-06-23T05:53:21.635Z,66.36
2018-06-23T05:55:50.234Z,67.40
2018-06-23T05:58:18.600Z,68.13
2018-06-23T06:00:47.110Z,68.41
2018-06-23T06:03:15.889Z,69.31
2018-06-23T06:05:44.383Z,69.89
2018-06-23T06:08:12.947Z,71.46
2018-06-23T06:10:41.507Z,71.41
2018-06-23T06:13:10.071Z,72.25
2018-06-23T06:15:38.684Z,72.83
2018-06-23T06:18:07.200Z,73.17
2018-06-23T06:20:35.671Z,73.39
2018-06-23T06:23:04.285Z,73.69
2018-06-23T06:25:32.888Z,73.40
2018-06-23T06:28:01.543Z,72.08
2018-06-23T06:30:29.975Z,72.23
2018-06-23T06:32:58.740Z,71.53
2018-06-23T06:35:27.341Z,69.64
2018-06-23T06:37:56.030Z,68.35
2018-06-23T06:40:30.142Z,67.30
2018-06-23T06:42:59.761Z,66.16
2018-06-23T06:45:28.143Z,66.04
2018-06-23T06:48:02.398Z,66.56
2018-06-23T06:50:38.207Z,65.96
2018-06-23T06:53:06.986Z,66.03
2018-06-23T06:55:38.645Z,65.20
2018-06-23T06:58:08.364Z,64.45
2018-06-23T07:00:37.138Z,64.26
2018-06-23T07:03:07.007Z,63.58
2018-06-23T07:05:35.862Z,63.80
2018-06-23T07:08:05.828Z,63.94
2018-06-23T07:10:38.921Z,63.09
2018-06-23T07:13:07.349Z,63.83
2018-06-23T07:15:45.362Z,62.98
2018-06-23T07:18:13.800Z,62.82
2018-06-23T07:20:44.870Z,62.68
2018-06-23T07:23:13.548Z,62.39
2018-06-23T07:25:42.155Z,61.58
2018-06-23T07:28:10.570Z,61.29
2018-06-23T07:30:38.956Z,59.95
2018-06-23T07:33:07.817Z,59.31
2018-06-23T07:35:37.188Z,59.50
2018-06-23T07:38:06.247Z,59.33
2018-06-23T07:40:34.990Z,59.80
2018-06-23T07:43:03.550Z,59.85
2018-06-23T07:45:31.979Z,60.57
2018-06-23T07:48:00.751Z,60.74
2018-06-23T07:50:29.804Z,60.90
2018-06-23T07:53:06.061Z,61.40
2018-06-23T07:55:34.766Z,61.26
2018-06-23T07:58:14.309Z,60.20
2018-06-23T08:00:43.280Z,59.13
2018-06-23T08:03:12.145Z,57.83
2018-06-23T08:05:42.820Z,59.31
2018-06-23T08:08:11.313Z,60.45
2018-06-23T08:10:41.297Z,60.84
2018-06-23T08:13:09.741Z,61.26
2018-06-23T08:15:38.163Z,61.64
2018-06-23T08:18:07.186Z,61.65
2018-06-23T08:20:35.605Z,60.99
2018-06-23T08:23:04.710Z,58.54
2018-06-23T08:25:33.182Z,57.16
2018-06-23T08:28:01.896Z,57.45
2018-06-23T08:30:30.397Z,57.42
2018-06-23T08:32:59.576Z,57.14
2018-06-23T08:35:29.238Z,55.69
2018-06-23T08:37:57.694Z,56.19
2018-06-23T08:40:26.296Z,55.67
2018-06-23T08:42:54.850Z,56.33
2018-06-23T08:45:23.312Z,56.09
2018-06-23T08:47:51.597Z,56.73
2018-06-23T08:50:20.541Z,57.54
2018-06-23T08:52:49.089Z,57.97
2018-06-23T08:55:18.096Z,57.55
2018-06-23T08:57:46.760Z,56.78
2018-06-23T09:00:15.233Z,56.84
2018-06-23T09:02:44.323Z,58.29
2018-06-23T09:05:12.894Z,58.19
2018-06-23T09:07:41.545Z,59.82
2018-06-23T09:10:10.139Z,59.90
2018-06-23T09:12:38.588Z,60.38
2018-06-23T09:15:07.082Z,61.17
2018-06-23T09:17:35.636Z,61.34
2018-06-23T09:20:04.189Z,61.45
2018-06-23T09:22:32.512Z,61.82
2018-06-23T09:25:01.449Z,61.65
2018-06-23T09:27:30.273Z,61.54
2018-06-23T09:29:58.812Z,61.89
2018-06-23T09:32:27.504Z,61.82
2018-06-23T09:34:55.917Z,61.77
2018-06-23T09:37:24.559Z,62.97
2018-06-23T09:39:54.154Z,62.87
2018-06-23T09:42:22.806Z,62.53
2018-06-23T09:44:51.501Z,62.01
2018-06-23T09:47:20.403Z,62.47
2018-06-23T09:49:49.191Z,61.97
2018-06-23T09:52:17.772Z,61.02
2018-06-23T09:54:46.345Z,61.22
2018-06-23T09:57:14.858Z,61.21
2018-06-23T09:59:43.986Z,61.03
2018-06-23T10:02:12.441Z,60.20
2018-06-23T10:04:40.964Z,59.99
2018-06-23T10:07:09.480Z,59.21
2018-06-23T10:09:38.480Z,60.96
2018-06-23T10:12:06.942Z,61.24
2018-06-23T10:14:35.951Z,60.52
2018-06-23T10:17:04.468Z,59.55
2018-06-23T10:19:32.992Z,58.90
2018-06-23T10:22:01.701Z,58.08
2018-06-23T10:24:30.773Z,58.27
2018-06-23T10:26:59.305Z,57.46
2018-06-23T10:29:27.896Z,56.70
2018-06-23T10:31:56.173Z,58.55
2018-06-23T10:34:24.676Z,58.91
2018-06-23T10:36:53.060Z,58.30
2018-06-23T10:39:21.540Z,60.13
2018-06-23T10:41:49.857Z,59.47
2018-06-23T10:44:18.822Z,59.67
2018-06-23T10:46:47.497Z,59.23
2018-06-23T10:49:15.830Z,58.81
2018-06-23T10:51:44.406Z,59.08
2018-06-23T10:54:13.126Z,59.73
2018-06-23T10:56:41.657Z,59.39
2018-06-23T10:59:10.425Z,59.75
2018-06-23T11:01:39.106Z,59.95
2018-06-23T11:04:07.588Z,58.93
2018-06-23T11:06:36.151Z,59.67
2018-06-23T11:09:07.674Z,59.87
2018-06-23T11:11:36.478Z,59.48
2018-06-23T11:14:05.287Z,59.93
2018-06-23T11:16:34.169Z,60.53
2018-06-23T11:19:03.374Z,60.03
2018-06-23T11:21:32.261Z,59.45
2018-06-23T11:24:00.929Z,60.35
2018-06-23T11:26:29.482Z,61.70
2018-06-23T11:28:58.426Z,60.52
2018-06-23T11:31:26.895Z,59.75
2018-06-23T11:33:55.336Z,59.01
2018-06-23T11:36:23.933Z,60.21
2018-06-23T11:38:52.448Z,59.03
2018-06-23T11:41:21.334Z,58.62
2018-06-23T11:43:50.272Z,58.69
2018-06-23T11:46:18.800Z,57.64
2018-06-23T11:48:47.667Z,57.27
2018-06-23T11:51:16.609Z,55.86
2018-06-23T11:53:45.397Z,55.17
2018-06-23T11:56:14.056Z,55.26
2018-06-23T11:58:42.618Z,54.36
2018-06-23T12:01:11.118Z,53.95
2018-06-23T12:03:40.262Z,54.27
2018-06-23T12:06:08.773Z,53.72
2018-06-23T12:08:37.225Z,53.40
2018-06-23T12:11:05.798Z,53.25
2018-06-23T12:13:34.287Z,52.00
2018-06-23T12:16:02.618Z,52.94
2018-06-23T12:18:31.115Z,52.91
2018-06-23T12:20:59.728Z,52.54
2018-06-23T12:23:28.038Z,53.25
2018-06-23T12:25:56.463Z,53.75
2018-06-23T12:28:25.032Z,54.57
2018-06-23T12:30:53.658Z,55.55
2018-06-23T12:33:22.296Z,56.25
2018-06-23T12:35:50.792Z,56.61
2018-06-23T12:38:19.348Z,56.97
2018-06-23T12:40:47.965Z,55.85
2018-06-23T12:43:16.845Z,56.33
2018-06-23T12:45:45.460Z,55.80
2018-06-23T12:48:13.899Z,55.06
2018-06-23T12:50:42.641Z,55.36
2018-06-23T12:53:11.095Z,55.88
2018-06-23T12:55:39.639Z,56.62
2018-06-23T12:58:08.305Z,56.40
2018-06-23T13:00:37.023Z,56.02
2018-06-23T13:03:05.858Z,55.67
2018-06-23T13:05:34.200Z,55.38
2018-06-23T13:08:03.029Z,55.03
2018-06-23T13:10:31.774Z,54.24
2018-06-23T13:13:00.373Z,53.32
2018-06-23T13:15:29.064Z,54.60
2018-06-23T13:17:57.815Z,52.44
2018-06-23T13:20:26.588Z,51.89
2018-06-23T13:22:55.370Z,50.54
2018-06-23T13:25:23.733Z,50.31
2018-06-23T13:27:52.593Z,48.57
2018-06-23T13:30:21.175Z,49.98
2018-06-23T13:32:50.341Z,50.17
2018-06-23T13:35:19.009Z,50.49
2018-06-23T13:37:47.686Z,50.37
2018-06-23T13:40:16.426Z,50.17
2018-06-23T13:42:45.217Z,50.40
2018-06-23T13:45:13.877Z,50.99
2018-06-23T13:47:42.333Z,51.41
2018-06-23T13:50:11.054Z,52.48
2018-06-23T13:52:39.732Z,52.74
2018-06-23T13:55:08.803Z,52.73
2018-06-23T13:57:37.470Z,51.61
2018-06-23T14:00:07.625Z,50.99
2018-06-23T14:02:36.272Z,51.93
2018-06-23T14:05:05.582Z,49.17
2018-06-23T14:07:34.273Z,49.32
2018-06-23T14:10:02.909Z,48.30
2018-06-23T14:12:31.685Z,48.97
2018-06-23T14:15:00.573Z,46.82
2018-06-23T14:17:29.483Z,46.94
2018-06-23T14:19:58.217Z,45.59
2018-06-23T14:22:26.658Z,45.05
2018-06-23T14:24:55.108Z,43.20
2018-06-23T14:27:23.886Z,45.74
2018-06-23T14:29:52.372Z,47.52
2018-06-23T14:32:20.969Z,46.85
2018-06-23T14:34:49.697Z,46.47
2018-06-23T14:37:18.445Z,46.41
2018-06-23T14:39:46.933Z,45.87
2018-06-23T14:42:15.985Z,45.19
